Waiting for the sun

ESSA 051010Z 051818 20010KT 8000 BR SCT007 BKN015 TEMPO 1815  2000 RADZ BKN004=

 With such a 24 hour forecast, no wonder one thinks back to the lovely flyable summer months and what is to come:

Advertisements

2 Responses to Waiting for the sun

  1. Anders says:

    Yeah… that was a great evening… but where are the pics from where we strafe Silja Line?

    /PIC Skippy

  2. Johanna says:

    uuh jag lider med er o vintervadret dar hemma. Dock sa har ni fortfarande chans att flyga vilket jag inte har. Sitter pa verandan varje dag o ser cessnor flyga forbi (pa skrammande lag hojd faktiskt) o saknar varje sekund av det!

Leave a Reply

Fill in your details below or click an icon to log in:

WordPress.com Logo

You are commenting using your WordPress.com account. Log Out / Change )

Twitter picture

You are commenting using your Twitter account. Log Out / Change )

Facebook photo

You are commenting using your Facebook account. Log Out / Change )

Google+ photo

You are commenting using your Google+ account. Log Out / Change )

Connecting to %s

%d bloggers like this: